Disclaimer

Please do not use the information listed here in-flight or in-navigation, as they are not provided to us by the airports but are provided by volunteers, so they might be outdated.

Search


Regions


Airport information page

Radio informations:
Tower (TWR) - 118.3 MHz
DE ICING - 135.225 MHz
LANGEN INFO - 129.875 MHz
Director (DIR) - 119.4 MHz
LANGEN RADAR - 128.55 MHz

Airport informations:
Latitude: 51° 17' 22.03" N
Longitude: 006° 46' 00.39" E
Elevation: 147 feet - 45 meters
Operating hours: 24 hour operations
Operating agency: Civil government, landing fees and diplomatic clearance may be required
Timezone: UTC+1(+2DT) - Last Sunday in March to last Sunday in October
Fuel: Jet A1, without icing nhibitor.

Runway information:
05R/23L - 9842 x 148 feet< - >3000 x 45 meters
05L/23R - 8858 x 148 feet< - >2700 x 45 meters

Recent METARs:
EDDL 172020Z 05010KT CAVOK 04/M02 Q1030 NOSIG
EDDL 172050Z 05007KT CAVOK 04/M02 Q1030 NOSIG
EDDL 172120Z 05005KT CAVOK 04/M02 Q1030 NOSIG

Airport on the map: